<?xml version="1.0" encoding="UTF-8" standalone="no" ?><gpx xmlns="http://www.topografix.com/GPX/1/1" xmlns:gpxx="http://www.garmin.com/xmlschemas/GpxExtensions/v3" xmlns:wptx1="http://www.garmin.com/xmlschemas/WaypointExtension/v1" xmlns:gpxtpx="http://www.garmin.com/xmlschemas/TrackPointExtension/v1" creator="GuideVTT.com" version="1.1" xmlns:xsi="http://www.w3.org/2001/XMLSchema-instance" xsi:schemaLocation="http://www.topografix.com/GPX/1/1 http://www.topografix.com/GPX/1/1/gpx.xsd http://www.garmin.com/xmlschemas/GpxExtensions/v3 http://www8.garmin.com/xmlschemas/GpxExtensionsv3.xsd http://www.garmin.com/xmlschemas/WaypointExtension/v1 http://www8.garmin.com/xmlschemas/WaypointExtensionv1.xsd http://www.garmin.com/xmlschemas/TrackPointExtension/v1 http://www.garmin.com/xmlschemas/TrackPointExtensionv1.xsd">
<metadata><link href="http://www.garmin.com"><text>Garmin International</text></link><time>2013-06-22T15:13:50Z</time></metadata>
<trk><name>yltm17eyh_survolbarillette2.gpx</name><extensions><gpxx:TrackExtension><gpxx:DisplayColor>Cyan</gpxx:DisplayColor></gpxx:TrackExtension></extensions><trkseg>
<trkpt lat="46.40091511532655" lon="6.17350888677775"><ele></ele><time>2016-7-23T7:58:43Z</time></trkpt>
<trkpt lat="46.39868879740221" lon="6.165217051909487"><ele></ele><time>2016-7-23T7:58:46Z</time></trkpt>
<trkpt lat="46.39751090437871" lon="6.158671730449818"><ele></ele><time>2016-7-23T7:58:49Z</time></trkpt>
<trkpt lat="46.39589226800555" lon="6.152388567017777"><ele></ele><time>2016-7-23T7:58:52Z</time></trkpt>
<trkpt lat="46.39522697231766" lon="6.14707735297173"><ele></ele><time>2016-7-23T7:58:55Z</time></trkpt>
<trkpt lat="46.39504250202902" lon="6.143951707958277"><ele></ele><time>2016-7-23T7:58:58Z</time></trkpt>
<trkpt lat="46.39697713783246" lon="6.141020988951141"><ele></ele><time>2016-7-23T7:59:1Z</time></trkpt>
<trkpt lat="46.3994024850436" lon="6.139555442750364"><ele></ele><time>2016-7-23T7:59:4Z</time></trkpt>
<trkpt lat="46.40228751446889" lon="6.138593301237822"><ele></ele><time>2016-7-23T7:59:7Z</time></trkpt>
<trkpt lat="46.40619404631013" lon="6.138494425162535"><ele></ele><time>2016-7-23T7:59:10Z</time></trkpt>
<trkpt lat="46.40804208662484" lon="6.139357493852911"><ele></ele><time>2016-7-23T7:59:13Z</time></trkpt>
<trkpt lat="46.40989684884466" lon="6.139911988159701"><ele></ele><time>2016-7-23T7:59:16Z</time></trkpt>
<trkpt lat="46.41089122593566" lon="6.140619955788223"><ele></ele><time>2016-7-23T7:59:19Z</time></trkpt>
<trkpt lat="46.41251940288295" lon="6.14263138806624"><ele></ele><time>2016-7-23T7:59:22Z</time></trkpt>
<trkpt lat="46.41427340835685" lon="6.146433554140685"><ele></ele><time>2016-7-23T7:59:25Z</time></trkpt>
<trkpt lat="46.41639128134459" lon="6.150766797016425"><ele></ele><time>2016-7-23T7:59:28Z</time></trkpt>
<trkpt lat="46.41699636760053" lon="6.151891943156183"><ele></ele><time>2016-7-23T7:59:31Z</time></trkpt>
<trkpt lat="46.41702974493615" lon="6.153725884245573"><ele></ele><time>2016-7-23T7:59:34Z</time></trkpt>
<trkpt lat="46.41705918337399" lon="6.154355906562589"><ele></ele><time>2016-7-23T7:59:37Z</time></trkpt>
<trkpt lat="46.41730818741051" lon="6.155836746108037"><ele></ele><time>2016-7-23T7:59:40Z</time></trkpt>
<trkpt lat="46.41778522105584" lon="6.157310837786079"><ele></ele><time>2016-7-23T7:59:43Z</time></trkpt>
<trkpt lat="46.41908313188576" lon="6.158869815791328"><ele></ele><time>2016-7-23T7:59:46Z</time></trkpt>
<trkpt lat="46.41943469373835" lon="6.160824730495844"><ele></ele><time>2016-7-23T7:59:49Z</time></trkpt>
<trkpt lat="46.41944407531103" lon="6.16248182046061"><ele></ele><time>2016-7-23T7:59:52Z</time></trkpt>
<trkpt lat="46.41870217457292" lon="6.16504121069222"><ele></ele><time>2016-7-23T7:59:55Z</time></trkpt>
<trkpt lat="46.41623774208057" lon="6.167576741882725"><ele></ele><time>2016-7-23T7:59:58Z</time></trkpt>
<trkpt lat="46.41512152667336" lon="6.16903129233487"><ele></ele><time>2016-7-23T8:0:1Z</time></trkpt>
<trkpt lat="46.41512395392346" lon="6.170054417604536"><ele></ele><time>2016-7-23T8:0:4Z</time></trkpt>
<trkpt lat="46.41598117835883" lon="6.17105730033118"><ele></ele><time>2016-7-23T8:0:7Z</time></trkpt>
<trkpt lat="46.41737876363412" lon="6.171812076588495"><ele></ele><time>2016-7-23T8:0:10Z</time></trkpt>
<trkpt lat="46.41879889273265" lon="6.172846445578615"><ele></ele><time>2016-7-23T8:0:13Z</time></trkpt>
<trkpt lat="46.421182718027" lon="6.173441430340533"><ele></ele><time>2016-7-23T8:0:16Z</time></trkpt>
<trkpt lat="46.42324642778888" lon="6.173752891161389"><ele></ele><time>2016-7-23T8:0:19Z</time></trkpt>
<trkpt lat="46.42632843821184" lon="6.171195516439418"><ele></ele><time>2016-7-23T8:0:22Z</time></trkpt>
<trkpt lat="46.42797221471216" lon="6.168907166209612"><ele></ele><time>2016-7-23T8:0:25Z</time></trkpt>
<trkpt lat="46.42875892998339" lon="6.166412386122218"><ele></ele><time>2016-7-23T8:0:28Z</time></trkpt>
<trkpt lat="46.4276419827774" lon="6.163950786901758"><ele></ele><time>2016-7-23T8:0:31Z</time></trkpt>
<trkpt lat="46.4264344467362" lon="6.162271649670998"><ele></ele><time>2016-7-23T8:0:34Z</time></trkpt>
<trkpt lat="46.42583218368986" lon="6.160118896676751"><ele></ele><time>2016-7-23T8:0:37Z</time></trkpt>
<trkpt lat="46.42383583041689" lon="6.157577345239405"><ele></ele><time>2016-7-23T8:0:40Z</time></trkpt>
<trkpt lat="46.4218064551733" lon="6.155308981477619"><ele></ele><time>2016-7-23T8:0:43Z</time></trkpt>
<trkpt lat="46.42078210129627" lon="6.153505323339534"><ele></ele><time>2016-7-23T8:0:46Z</time></trkpt>
<trkpt lat="46.4204578888647" lon="6.151403961021662"><ele></ele><time>2016-7-23T8:0:49Z</time></trkpt>
<trkpt lat="46.42151138141467" lon="6.150023557535985"><ele></ele><time>2016-7-23T8:0:52Z</time></trkpt>
<trkpt lat="46.42237621086847" lon="6.149414514678018"><ele></ele><time>2016-7-23T8:0:55Z</time></trkpt>
<trkpt lat="46.42344947266896" lon="6.148627658483276"><ele></ele><time>2016-7-23T8:0:58Z</time></trkpt>
<trkpt lat="46.42400494865632" lon="6.14810239317123"><ele></ele><time>2016-7-23T8:1:1Z</time></trkpt>
<trkpt lat="46.42439124786287" lon="6.146878978622203"><ele></ele><time>2016-7-23T8:1:4Z</time></trkpt>
<trkpt lat="46.42588202517811" lon="6.145303784614673"><ele></ele><time>2016-7-23T8:1:7Z</time></trkpt>
<trkpt lat="46.42669715312207" lon="6.14495014901409"><ele></ele><time>2016-7-23T8:1:10Z</time></trkpt>
<trkpt lat="46.42754178832765" lon="6.144860259815605"><ele></ele><time>2016-7-23T8:1:13Z</time></trkpt>
<trkpt lat="46.42857769839813" lon="6.144107414524738"><ele></ele><time>2016-7-23T8:1:16Z</time></trkpt>
<trkpt lat="46.4288995672045" lon="6.143486238035991"><ele></ele><time>2016-7-23T8:1:19Z</time></trkpt>
<trkpt lat="46.42859907811166" lon="6.142286641930602"><ele></ele><time>2016-7-23T8:1:22Z</time></trkpt>
<trkpt lat="46.4286112833891" lon="6.140245175820542"><ele></ele><time>2016-7-23T8:1:25Z</time></trkpt>
<trkpt lat="46.42820076687673" lon="6.137221225090843"><ele></ele><time>2016-7-23T8:1:28Z</time></trkpt>
<trkpt lat="46.42647237710894" lon="6.134424672333676"><ele></ele><time>2016-7-23T8:1:31Z</time></trkpt>
<trkpt lat="46.42529278984245" lon="6.132505853813902"><ele></ele><time>2016-7-23T8:1:34Z</time></trkpt>
<trkpt lat="46.42478106986335" lon="6.130661334046536"><ele></ele><time>2016-7-23T8:1:37Z</time></trkpt>
<trkpt lat="46.42448498270318" lon="6.128494715163832"><ele></ele><time>2016-7-23T8:1:40Z</time></trkpt>
<trkpt lat="46.42440417531661" lon="6.127131750012991"><ele></ele><time>2016-7-23T8:1:43Z</time></trkpt>
<trkpt lat="46.42547084865178" lon="6.126516626524346"><ele></ele><time>2016-7-23T8:1:46Z</time></trkpt>
<trkpt lat="46.42649158688059" lon="6.126700646552362"><ele></ele><time>2016-7-23T8:1:49Z</time></trkpt>
<trkpt lat="46.42829154893404" lon="6.127729956280971"><ele></ele><time>2016-7-23T8:1:52Z</time></trkpt>
<trkpt lat="46.42943174324773" lon="6.129502739125813"><ele></ele><time>2016-7-23T8:1:55Z</time></trkpt>
<trkpt lat="46.43002455274851" lon="6.129524785608833"><ele></ele><time>2016-7-23T8:1:58Z</time></trkpt>
<trkpt lat="46.43036075026635" lon="6.129365038372794"><ele></ele><time>2016-7-23T8:2:1Z</time></trkpt>
<trkpt lat="46.43080333055284" lon="6.129268226348317"><ele></ele><time>2016-7-23T8:2:4Z</time></trkpt>
<trkpt lat="46.43117980073453" lon="6.129079922096626"><ele></ele><time>2016-7-23T8:2:7Z</time></trkpt>
<trkpt lat="46.43142444069779" lon="6.128853850539791"><ele></ele><time>2016-7-23T8:2:10Z</time></trkpt>
<trkpt lat="46.43159522193567" lon="6.128529336057844"><ele></ele><time>2016-7-23T8:2:13Z</time></trkpt>
<trkpt lat="46.43152459238775" lon="6.128150334597928"><ele></ele><time>2016-7-23T8:2:16Z</time></trkpt>
<trkpt lat="46.43126061344609" lon="6.127891333198281"><ele></ele><time>2016-7-23T8:2:19Z</time></trkpt>
<trkpt lat="46.43091070752256" lon="6.127929975705195"><ele></ele><time>2016-7-23T8:2:22Z</time></trkpt>
<trkpt lat="46.43061134576598" lon="6.128251534206701"><ele></ele><time>2016-7-23T8:2:25Z</time></trkpt>
<trkpt lat="46.43056532723119" lon="6.128583451344096"><ele></ele><time>2016-7-23T8:2:28Z</time></trkpt>
</trkseg></trk></gpx>